Time;durP1;ratioP1;P1;durP2;ratioP2;P2;SDS_P1;SDS_P2;PMS_P1;PMS_P2;Temp;Humidity;BMP_temperature;BMP_pressure;BME280_temperature;BME280_humidity;BME280_pressure;Samples;Min_cycle;Max_cycle;Signal;HPM_P1;HPM_P2
2021/01/09 00:02:24;;;;;;;18.23;11.05;;;;;;;-1.33;100.00;102224.34;4809868;29;20034;-84
2021/01/09 00:04:49;;;;;;;18.13;10.75;;;;;;;-1.33;100.00;102229.53;4817563;29;20041;-84
2021/01/09 00:07:14;;;;;;;14.73;10.25;;;;;;;-1.38;100.00;102215.56;4820480;29;20051;-84
2021/01/09 00:09:40;;;;;;;13.70;9.75;;;;;;;-1.44;100.00;102225.78;4807135;29;20107;-84
2021/01/09 00:12:11;;;;;;;18.27;10.95;;;;;;;-1.59;100.00;102215.88;4794800;29;20030;-84
2021/01/09 00:14:36;;;;;;;20.38;11.20;;;;;;;-1.56;100.00;102209.88;4804798;29;20058;-84
2021/01/09 00:17:04;;;;;;;16.52;10.50;;;;;;;-1.59;100.00;102212.41;4792006;29;20472;-84
2021/01/09 00:19:30;;;;;;;17.58;10.13;;;;;;;-1.70;100.00;102206.91;4808473;29;20031;-84
2021/01/09 00:21:59;;;;;;;15.68;10.45;;;;;;;-1.48;100.00;102229.13;4788706;29;20035;-84
2021/01/09 00:24:24;;;;;;;20.92;12.27;;;;;;;-1.65;100.00;102213.09;4808670;29;20045;-84
2021/01/09 00:26:49;;;;;;;17.35;11.10;;;;;;;-1.41;100.00;102225.84;4789600;29;20458;-84
2021/01/09 00:29:14;;;;;;;23.15;11.32;;;;;;;-1.38;100.00;102218.16;4785445;29;20045;-84
2021/01/09 00:31:40;;;;;;;23.30;11.95;;;;;;;-1.31;100.00;102233.06;4789204;29;20077;-84
2021/01/09 00:34:05;;;;;;;19.38;10.68;;;;;;;-1.52;100.00;102221.22;4806404;29;20034;-84
2021/01/09 00:36:31;;;;;;;19.10;11.20;;;;;;;-1.55;100.00;102231.50;4819351;29;20095;-83
2021/01/09 00:38:56;;;;;;;19.25;11.20;;;;;;;-1.75;100.00;102218.00;4811527;29;20034;-83
2021/01/09 00:41:29;;;;;;;20.33;11.63;;;;;;;-1.67;100.00;102239.81;4808172;29;20034;-84
2021/01/09 00:43:55;;;;;;;14.75;9.57;;;;;;;-1.68;100.00;102244.13;4799596;29;20031;-84
2021/01/09 00:46:20;;;;;;;20.67;11.57;;;;;;;-1.78;100.00;102244.69;4819365;29;20113;-83
2021/01/09 00:48:46;;;;;;;16.73;10.95;;;;;;;-1.65;100.00;102239.03;4812286;29;20132;-84
2021/01/09 00:51:16;;;;;;;20.48;11.77;;;;;;;-1.64;100.00;102243.38;4793800;29;20030;-83
2021/01/09 00:53:41;;;;;;;23.80;12.57;;;;;;;-1.62;100.00;102243.41;4795521;29;20034;-84
2021/01/09 00:56:07;;;;;;;23.08;13.80;;;;;;;-1.61;100.00;102242.56;4800720;29;20030;-84
2021/01/09 00:58:35;;;;;;;21.65;13.35;;;;;;;-1.62;100.00;102249.47;4799022;29;20030;-84
2021/01/09 01:01:03;;;;;;;18.63;11.55;;;;;;;-1.72;100.00;102244.88;4779237;29;20121;-84
2021/01/09 01:03:29;;;;;;;18.38;11.85;;;;;;;-1.73;100.00;102253.47;4797178;29;20037;-84
2021/01/09 01:05:54;;;;;;;17.58;11.45;;;;;;;-1.72;100.00;102254.34;4799357;29;20050;-84
2021/01/09 01:08:21;;;;;;;22.00;11.73;;;;;;;-1.80;100.00;102251.56;4824366;29;20053;-84
2021/01/09 01:10:47;;;;;;;21.60;12.20;;;;;;;-1.85;100.00;102242.78;4823649;29;20035;-84
2021/01/09 01:13:13;;;;;;;21.15;13.30;;;;;;;-1.70;100.00;102250.13;4821480;29;20059;-84
2021/01/09 01:15:38;;;;;;;19.08;11.27;;;;;;;-1.68;100.00;102251.03;4825943;29;20026;-85
2021/01/09 01:18:04;;;;;;;17.75;12.20;;;;;;;-1.64;100.00;102261.53;4816627;29;20627;-84
2021/01/09 01:20:29;;;;;;;24.88;11.73;;;;;;;-1.67;100.00;102258.84;4819305;29;20030;-84
2021/01/09 01:22:55;;;;;;;25.90;15.32;;;;;;;-1.71;100.00;102267.34;4821341;29;20031;-84
2021/01/09 01:25:20;;;;;;;22.00;13.13;;;;;;;-1.72;100.00;102255.22;4817309;29;20499;-85
2021/01/09 01:27:48;;;;;;;26.05;13.98;;;;;;;-1.59;100.00;102256.47;4816832;29;20121;-85
2021/01/09 01:30:14;;;;;;;22.42;14.02;;;;;;;-1.54;100.00;102256.59;4822277;29;20062;-85
2021/01/09 01:32:39;;;;;;;27.15;14.63;;;;;;;-1.57;100.00;102260.84;4822492;29;20113;-84
2021/01/09 01:35:05;;;;;;;20.55;12.18;;;;;;;-1.64;100.00;102271.91;4813032;29;20038;-84
2021/01/09 01:37:30;;;;;;;22.48;13.32;;;;;;;-1.62;100.00;102265.03;4823654;29;20475;-84
2021/01/09 01:39:56;;;;;;;20.50;12.75;;;;;;;-1.67;100.00;102266.59;4811560;29;20063;-85
2021/01/09 01:42:21;;;;;;;19.35;12.55;;;;;;;-1.63;100.00;102272.78;4823757;29;20038;-85
2021/01/09 01:44:46;;;;;;;25.25;13.30;;;;;;;-1.71;100.00;102261.28;4818306;29;20035;-85
2021/01/09 01:47:17;;;;;;;21.05;12.73;;;;;;;-1.61;100.00;102278.88;4825163;29;20034;-85
2021/01/09 01:49:45;;;;;;;20.30;12.50;;;;;;;-1.57;100.00;102284.19;4818187;29;20106;-85
2021/01/09 01:52:13;;;;;;;19.63;11.00;;;;;;;-1.47;100.00;102285.31;4826286;29;20023;-85
2021/01/09 01:54:40;;;;;;;23.25;11.80;;;;;;;-1.44;100.00;102269.84;4821133;29;20058;-85
2021/01/09 01:57:08;;;;;;;21.15;11.98;;;;;;;-1.17;100.00;102289.59;4822062;29;20030;-85
2021/01/09 01:59:34;;;;;;;21.77;11.52;;;;;;;-1.11;100.00;102282.84;4812020;29;20023;-85
2021/01/09 02:02:03;;;;;;;21.52;11.82;;;;;;;-1.15;100.00;102287.94;4821011;29;20046;-86
2021/01/09 02:04:28;;;;;;;21.13;11.35;;;;;;;-1.22;100.00;102279.09;4814915;29;20047;-85
2021/01/09 02:06:56;;;;;;;19.75;10.88;;;;;;;-1.01;100.00;102280.50;4820024;29;20050;-85
2021/01/09 02:09:24;;;;;;;20.45;11.00;;;;;;;-1.08;100.00;102284.66;4818912;29;20058;-85
2021/01/09 02:12:06;;;;;;;21.48;11.30;;;;;;;-1.24;100.00;102274.72;4820805;29;20037;-86
2021/01/09 02:14:38;;;;;;;19.90;10.50;;;;;;;-1.32;100.00;102280.56;4838168;29;20062;-86
2021/01/09 02:17:06;;;;;;;20.55;10.40;;;;;;;-1.29;100.00;102287.56;4829691;29;20026;-86
2021/01/09 02:19:36;;;;;;;19.80;10.27;;;;;;;-1.25;100.00;102299.78;4821772;29;20031;-86
2021/01/09 02:22:03;;;;;;;17.02;10.05;;;;;;;-1.33;100.00;102289.19;4818360;29;20038;-86
2021/01/09 02:24:29;;;;;;;23.35;10.73;;;;;;;-1.47;100.00;102281.84;4816843;29;20026;-86
2021/01/09 02:26:54;;;;;;;17.63;9.63;;;;;;;-1.44;100.00;102292.31;4813438;29;20099;-85
2021/01/09 02:29:22;;;;;;;17.98;10.45;;;;;;;-1.66;100.00;102293.41;4822633;29;20054;-85
2021/01/09 02:32:01;;;;;;;17.60;10.77;;;;;;;-1.75;100.00;102312.19;4816614;29;20042;-85
2021/01/09 02:34:51;;;;;;;15.65;9.75;;;;;;;-1.83;100.00;102305.91;4812235;29;20080;-85
2021/01/09 02:37:17;;;;;;;15.80;9.10;;;;;;;-1.92;100.00;102292.66;4819098;29;20026;-85
2021/01/09 02:39:43;;;;;;;20.10;10.00;;;;;;;-1.86;100.00;102293.75;4816357;29;20041;-85
2021/01/09 02:42:08;;;;;;;14.77;8.98;;;;;;;-1.88;100.00;102317.84;4824831;29;20034;-86
2021/01/09 02:44:34;;;;;;;19.73;9.68;;;;;;;-1.91;100.00;102317.72;4817505;29;20038;-85
2021/01/09 02:47:00;;;;;;;18.98;9.35;;;;;;;-1.83;100.00;102298.13;4822963;29;20042;-85
2021/01/09 02:49:25;;;;;;;17.35;10.93;;;;;;;-1.83;100.00;102308.47;4823784;29;20552;-85
2021/01/09 02:51:51;;;;;;;16.05;9.55;;;;;;;-1.89;100.00;102309.19;4821973;29;20018;-85
2021/01/09 02:54:16;;;;;;;16.25;10.45;;;;;;;-2.11;100.00;102296.41;4821392;29;20081;-85
2021/01/09 02:56:41;;;;;;;22.40;9.60;;;;;;;-1.97;100.00;102309.78;4816252;29;20065;-85
2021/01/09 02:59:06;;;;;;;17.25;10.20;;;;;;;-1.98;100.00;102295.94;4813393;29;20065;-85
2021/01/09 03:01:32;;;;;;;16.73;9.38;;;;;;;-1.87;100.00;102288.47;4814648;29;20470;-85
2021/01/09 03:03:58;;;;;;;19.23;9.88;;;;;;;-1.74;100.00;102306.16;4818433;29;20121;-85
2021/01/09 03:06:24;;;;;;;17.75;9.57;;;;;;;-1.72;100.00;102312.25;4814232;29;20046;-85
2021/01/09 03:08:50;;;;;;;22.38;10.35;;;;;;;-1.76;100.00;102315.59;4820405;29;20133;-85
2021/01/09 03:11:16;;;;;;;15.52;9.63;;;;;;;-1.97;100.00;102282.16;4816455;29;20117;-85
2021/01/09 03:13:42;;;;;;;17.60;9.40;;;;;;;-1.79;100.00;102306.88;4810992;29;20033;-85
2021/01/09 03:16:08;;;;;;;18.60;10.02;;;;;;;-1.78;100.00;102309.50;4816117;29;20061;-85
2021/01/09 03:18:33;;;;;;;15.40;9.80;;;;;;;-1.90;100.00;102317.78;4821302;29;20456;-85
2021/01/09 03:20:59;;;;;;;20.83;9.45;;;;;;;-1.83;100.00;102316.25;4821376;29;20547;-84
2021/01/09 03:23:24;;;;;;;16.65;9.23;;;;;;;-1.79;100.00;102320.72;4814056;29;20026;-85
2021/01/09 03:25:49;;;;;;;21.63;9.57;;;;;;;-1.80;100.00;102318.97;4803146;29;20026;-84
2021/01/09 03:28:15;;;;;;;18.52;9.60;;;;;;;-1.78;100.00;102316.41;4820283;29;20034;-84
2021/01/09 03:30:40;;;;;;;18.77;9.90;;;;;;;-1.94;100.00;102310.75;4824064;29;20041;-85
2021/01/09 03:33:05;;;;;;;17.08;9.55;;;;;;;-2.03;100.00;102305.28;4819830;29;20031;-85
2021/01/09 03:35:30;;;;;;;18.67;9.05;;;;;;;-2.13;100.00;102309.31;4820602;29;20041;-84
2021/01/09 03:37:56;;;;;;;22.75;9.85;;;;;;;-2.12;100.00;102317.97;4818425;29;20022;-85
2021/01/09 03:40:21;;;;;;;22.40;10.98;;;;;;;-2.01;100.00;102319.16;4820607;29;20061;-85
2021/01/09 03:42:46;;;;;;;16.33;9.52;;;;;;;-2.08;100.00;102325.88;4825904;29;20078;-85
2021/01/09 03:45:12;;;;;;;15.30;9.02;;;;;;;-2.02;100.00;102332.94;4819547;29;20125;-84
2021/01/09 03:47:37;;;;;;;16.98;9.80;;;;;;;-2.10;100.00;102326.69;4809372;29;20578;-84
2021/01/09 03:50:04;;;;;;;13.82;8.32;;;;;;;-2.12;100.00;102329.19;4813523;29;20041;-84
2021/01/09 03:52:29;;;;;;;18.70;7.90;;;;;;;-2.18;100.00;102325.53;4821674;29;20810;-85
2021/01/09 03:54:55;;;;;;;15.02;8.77;;;;;;;-2.13;100.00;102323.97;4809520;29;20134;-84
2021/01/09 03:57:20;;;;;;;15.77;9.20;;;;;;;-2.10;100.00;102324.09;4813335;29;20475;-85
2021/01/09 03:59:45;;;;;;;17.77;10.05;;;;;;;-2.07;100.00;102316.38;4811767;29;20067;-85
2021/01/09 04:02:11;;;;;;;20.45;9.35;;;;;;;-1.91;100.00;102310.88;4824832;29;20058;-85
2021/01/09 04:04:36;;;;;;;16.58;9.00;;;;;;;-2.15;100.00;102313.56;4828203;29;20062;-85
2021/01/09 04:07:02;;;;;;;14.52;9.20;;;;;;;-1.95;100.00;102321.97;4813074;29;20447;-85
2021/01/09 04:09:27;;;;;;;20.48;9.40;;;;;;;-2.05;100.00;102329.41;4822597;29;20030;-85
2021/01/09 04:11:52;;;;;;;14.90;8.50;;;;;;;-2.18;100.00;102325.53;4819178;29;20062;-85
2021/01/09 04:14:17;;;;;;;20.23;9.80;;;;;;;-2.18;100.00;102317.78;4814687;29;20806;-85
2021/01/09 04:16:43;;;;;;;15.65;9.07;;;;;;;-2.25;100.00;102311.53;4822035;29;20842;-85
2021/01/09 04:19:08;;;;;;;14.82;8.93;;;;;;;-2.22;100.00;102324.56;4813648;29;20096;-85
2021/01/09 04:21:51;;;;;;;16.77;9.25;;;;;;;-2.15;100.00;102328.25;4817245;29;20034;-85
2021/01/09 04:24:18;;;;;;;18.75;9.73;;;;;;;-2.12;100.00;102328.31;4821581;29;20113;-85
2021/01/09 04:26:43;;;;;;;20.33;10.82;;;;;;;-2.15;100.00;102325.66;4823704;29;20105;-85
2021/01/09 04:29:09;;;;;;;16.92;9.00;;;;;;;-2.02;100.00;102325.19;4811952;29;20126;-85
2021/01/09 04:31:34;;;;;;;16.30;9.70;;;;;;;-2.21;100.00;102297.84;4816592;29;20057;-86
2021/01/09 04:33:59;;;;;;;14.30;8.57;;;;;;;-2.15;100.00;102330.84;4815112;29;20031;-85
2021/01/09 04:36:25;;;;;;;18.05;8.55;;;;;;;-2.20;100.00;102330.69;4816847;29;20034;-85
2021/01/09 04:38:50;;;;;;;18.65;8.82;;;;;;;-2.37;100.00;102349.97;4832780;29;20130;-85
2021/01/09 04:41:19;;;;;;;21.25;9.85;;;;;;;-2.44;100.00;102341.13;4823419;29;20060;-85
2021/01/09 04:43:46;;;;;;;15.85;8.82;;;;;;;-2.26;100.00;102343.44;4824081;29;20119;-84
2021/01/09 04:46:15;;;;;;;14.57;9.05;;;;;;;-2.17;100.00;102342.84;4816874;29;20026;-84
2021/01/09 04:48:40;;;;;;;13.05;8.52;;;;;;;-2.35;100.00;102351.78;4823664;29;20045;-84
2021/01/09 04:51:06;;;;;;;13.73;8.32;;;;;;;-2.35;100.00;102344.03;4808505;29;20027;-86
2021/01/09 04:53:33;;;;;;;16.35;9.07;;;;;;;-2.31;100.00;102350.16;4820039;29;20448;-84
2021/01/09 04:55:58;;;;;;;14.68;9.10;;;;;;;-2.59;100.00;102332.88;4820301;29;20434;-84
2021/01/09 04:58:23;;;;;;;14.75;8.48;;;;;;;-2.45;100.00;102347.16;4819848;29;20031;-84
2021/01/09 05:00:54;;;;;;;17.35;9.40;;;;;;;-2.54;100.00;102348.56;4818449;29;20444;-84
2021/01/09 05:03:23;;;;;;;17.40;9.10;;;;;;;-2.49;100.00;102357.34;4819211;29;20492;-84
2021/01/09 05:05:49;;;;;;;17.38;9.05;;;;;;;-2.51;100.00;102354.72;4808989;29;20832;-84
2021/01/09 05:08:14;;;;;;;12.80;7.78;;;;;;;-2.69;100.00;102344.63;4785392;29;20035;-84
2021/01/09 05:10:40;;;;;;;14.38;8.82;;;;;;;-2.49;100.00;102352.16;4796212;29;20105;-84
2021/01/09 05:13:06;;;;;;;13.20;8.40;;;;;;;-2.60;100.00;102354.41;4808253;29;20039;-84
2021/01/09 05:15:38;;;;;;;17.67;8.23;;;;;;;-2.55;100.00;102360.63;4800510;29;20030;-84
2021/01/09 05:18:03;;;;;;;16.30;8.93;;;;;;;-2.54;100.00;102359.78;4786490;29;20038;-84
2021/01/09 05:20:30;;;;;;;13.13;8.20;;;;;;;-2.47;100.00;102355.69;4795481;29;20035;-84
2021/01/09 05:22:56;;;;;;;13.68;8.43;;;;;;;-2.54;100.00;102364.09;4783956;29;20042;-84
2021/01/09 05:25:25;;;;;;;15.60;9.93;;;;;;;-2.38;100.00;102364.63;4790171;29;20027;-84
2021/01/09 05:27:55;;;;;;;16.13;10.38;;;;;;;-2.37;100.00;102362.91;4806327;29;20038;-84
2021/01/09 05:30:22;;;;;;;17.85;9.73;;;;;;;-2.30;100.00;102372.66;4785575;29;20534;-84
2021/01/09 05:32:48;;;;;;;20.83;9.52;;;;;;;-2.29;100.00;102377.00;4789034;29;20038;-84
2021/01/09 05:35:14;;;;;;;16.05;9.13;;;;;;;-2.42;100.00;102377.44;4790027;29;20034;-87
2021/01/09 05:37:40;;;;;;;19.00;8.80;;;;;;;-2.31;100.00;102375.19;4795989;29;20041;-86
2021/01/09 05:40:09;;;;;;;21.83;9.68;;;;;;;-2.39;100.00;102375.81;4793905;29;20031;-86
2021/01/09 05:42:35;;;;;;;19.40;8.70;;;;;;;-2.47;100.00;102378.97;4798648;29;20102;-86
2021/01/09 05:45:00;;;;;;;16.63;9.07;;;;;;;-2.41;100.00;102364.56;4806126;29;20061;-85
2021/01/09 05:47:28;;;;;;;22.80;9.52;;;;;;;-2.33;100.00;102375.13;4805198;29;20035;-85
2021/01/09 05:49:55;;;;;;;19.88;9.50;;;;;;;-2.33;100.00;102375.13;4810347;29;20034;-84
2021/01/09 05:52:23;;;;;;;13.95;8.88;;;;;;;-2.46;100.00;102357.44;4789107;29;20918;-85
2021/01/09 05:54:54;;;;;;;16.20;8.98;;;;;;;-2.35;100.00;102398.41;4791447;29;20207;-85
2021/01/09 05:57:20;;;;;;;18.98;9.95;;;;;;;-2.31;100.00;102389.00;4793186;29;20027;-86
2021/01/09 05:59:45;;;;;;;17.08;9.85;;;;;;;-2.22;100.00;102386.72;4792352;29;20035;-85
2021/01/09 06:02:11;;;;;;;18.88;9.40;;;;;;;-2.22;100.00;102372.91;4790494;29;20038;-85
2021/01/09 06:04:44;;;;;;;17.63;10.15;;;;;;;-2.26;100.00;102371.94;4786757;29;20078;-85
2021/01/09 06:07:21;;;;;;;16.38;9.57;;;;;;;-2.32;100.00;102392.44;4814784;29;20054;-83
2021/01/09 06:10:11;;;;;;;20.00;8.82;;;;;;;-2.33;100.00;102389.81;4816211;29;20073;-83
2021/01/09 06:12:41;;;;;;;14.27;7.78;;;;;;;-2.37;100.00;102406.94;4799989;29;20092;-85
2021/01/09 06:15:14;;;;;;;16.17;8.15;;;;;;;-2.40;100.00;102407.75;4820315;29;20172;-85
2021/01/09 06:17:40;;;;;;;14.60;8.10;;;;;;;-2.51;100.00;102390.97;4811476;29;20035;-85
2021/01/09 06:20:06;;;;;;;14.98;8.82;;;;;;;-2.43;100.00;102405.03;4817093;29;20058;-85
2021/01/09 06:22:32;;;;;;;21.45;9.25;;;;;;;-2.39;100.00;102411.19;4817284;29;20047;-85
2021/01/09 06:24:58;;;;;;;16.88;9.20;;;;;;;-2.41;100.00;102405.97;4822324;29;20066;-85
2021/01/09 06:27:31;;;;;;;17.20;8.30;;;;;;;-2.42;100.00;102408.50;4823008;29;20566;-85
2021/01/09 06:30:04;;;;;;;15.73;8.95;;;;;;;-2.50;100.00;102416.03;4813170;29;20030;-85
2021/01/09 06:32:35;;;;;;;16.98;8.48;;;;;;;-2.44;100.00;102410.16;4812234;29;20030;-85
2021/01/09 06:35:03;;;;;;;22.48;8.95;;;;;;;-2.42;100.00;102408.50;4827732;29;20038;-85
2021/01/09 06:37:28;;;;;;;18.50;7.85;;;;;;;-2.47;100.00;102402.28;4826502;29;20042;-85
2021/01/09 06:39:54;;;;;;;17.05;7.55;;;;;;;-2.47;100.00;102418.69;4825884;29;20053;-85
2021/01/09 06:42:21;;;;;;;16.95;8.93;;;;;;;-2.36;100.00;102417.38;4820015;29;20034;-85
2021/01/09 06:44:51;;;;;;;12.57;7.03;;;;;;;-2.58;100.00;102383.81;4810518;29;20125;-85
2021/01/09 06:47:30;;;;;;;14.60;7.32;;;;;;;-2.46;100.00;102409.22;4812747;29;20377;-85
2021/01/09 06:50:21;;;;;;;18.35;8.88;;;;;;;-2.38;100.00;102423.31;4822547;29;20043;-85
2021/01/09 06:53:12;;;;;;;13.75;8.18;;;;;;;-2.53;100.00;102410.72;4826238;29;20034;-85
2021/01/09 06:55:37;;;;;;;14.48;7.47;;;;;;;-2.48;100.00;102427.28;4829651;29;20133;-85
2021/01/09 06:58:06;;;;;;;15.27;8.13;;;;;;;-2.57;100.00;102429.56;4818966;29;20090;-85
2021/01/09 07:00:32;;;;;;;13.50;7.95;;;;;;;-2.48;100.00;102424.72;4813727;29;20064;-85
2021/01/09 07:03:17;;;;;;;12.38;7.75;;;;;;;-2.39;100.00;102427.63;4816625;29;20475;-85
2021/01/09 07:05:50;;;;;;;15.07;7.90;;;;;;;-2.36;100.00;102435.50;4831521;29;20050;-84
2021/01/09 07:08:23;;;;;;;20.63;8.85;;;;;;;-2.42;100.00;102429.22;4811581;29;20329;-84
2021/01/09 07:11:09;;;;;;;13.73;7.65;;;;;;;-2.51;100.00;102429.81;4821044;29;20079;-85
2021/01/09 07:13:34;;;;;;;11.35;6.25;;;;;;;-2.53;100.00;102426.25;4816276;29;20037;-85
2021/01/09 07:16:14;;;;;;;14.93;7.93;;;;;;;-2.55;100.00;102422.75;4811290;29;20046;-85
2021/01/09 07:18:43;;;;;;;22.85;8.05;;;;;;;-2.42;100.00;102439.56;4808554;29;20038;-85
2021/01/09 07:21:11;;;;;;;14.18;8.27;;;;;;;-2.51;100.00;102429.81;4814175;29;20038;-85
2021/01/09 07:23:37;;;;;;;14.02;8.00;;;;;;;-2.41;100.00;102436.16;4810965;29;20049;-84
2021/01/09 07:26:03;;;;;;;19.92;8.48;;;;;;;-2.24;100.00;102441.91;4820061;29;20027;-86
2021/01/09 07:28:33;;;;;;;12.73;8.00;;;;;;;-2.31;100.00;102445.09;4811387;29;20039;-86
2021/01/09 07:31:07;;;;;;;16.05;7.70;;;;;;;-2.43;100.00;102437.81;4821648;29;20042;-85
2021/01/09 07:33:33;;;;;;;16.58;7.93;;;;;;;-2.49;100.00;102435.91;4819800;29;20105;-84
2021/01/09 07:35:59;;;;;;;13.43;7.60;;;;;;;-2.38;100.00;102442.31;4811769;29;20676;-86
2021/01/09 07:38:25;;;;;;;15.05;7.25;;;;;;;-2.55;100.00;102438.28;4808349;29;20034;-85
2021/01/09 07:40:57;;;;;;;15.50;7.25;;;;;;;-2.55;100.00;102443.47;4815822;29;20070;-85
2021/01/09 07:43:44;;;;;;;19.77;8.65;;;;;;;-2.54;100.00;102450.41;4818607;29;20347;-85
2021/01/09 07:46:30;;;;;;;12.90;7.18;;;;;;;-2.52;100.00;102453.91;4814567;29;20494;-84
2021/01/09 07:48:59;;;;;;;13.00;6.38;;;;;;;-2.31;100.00;102452.88;4814980;29;20429;-85
2021/01/09 07:51:44;;;;;;;13.65;7.97;;;;;;;-2.24;100.00;102452.28;4818062;29;20094;-85
2021/01/09 07:54:10;;;;;;;13.75;7.65;;;;;;;-2.29;100.00;102459.00;4797096;29;20082;-84
2021/01/09 07:56:36;;;;;;;14.38;8.20;;;;;;;-2.39;100.00;102456.09;4814963;29;20060;-85
2021/01/09 07:59:03;;;;;;;15.65;8.30;;;;;;;-2.31;100.00;102466.72;4821395;29;20041;-85
2021/01/09 08:01:28;;;;;;;20.73;8.32;;;;;;;-2.39;100.00;102466.47;4805499;29;20381;-85
2021/01/09 08:03:54;;;;;;;15.38;7.57;;;;;;;-2.48;100.00;102463.53;4814255;29;20081;-86
2021/01/09 08:06:19;;;;;;;16.38;8.45;;;;;;;-2.14;100.00;102469.88;4819493;29;20046;-86
2021/01/09 08:08:49;;;;;;;15.43;8.40;;;;;;;-2.13;100.00;102471.66;4833210;29;20069;-85
2021/01/09 08:11:15;;;;;;;16.58;8.38;;;;;;;-2.06;100.00;102471.00;4820852;29;20038;-85
2021/01/09 08:13:40;;;;;;;20.70;9.80;;;;;;;-2.09;100.00;102468.31;4823563;29;20379;-84
2021/01/09 08:16:05;;;;;;;18.25;9.52;;;;;;;-2.00;100.00;102481.59;4822896;29;20029;-85
2021/01/09 08:18:31;;;;;;;16.33;8.13;;;;;;;-2.02;100.00;102487.53;4812962;29;20071;-86
2021/01/09 08:20:57;;;;;;;19.13;8.82;;;;;;;-2.11;100.00;102480.34;4822929;29;20022;-85
2021/01/09 08:23:22;;;;;;;17.38;8.43;;;;;;;-1.99;100.00;102490.25;4817510;29;20165;-85
2021/01/09 08:25:47;;;;;;;17.23;8.55;;;;;;;-1.88;100.00;102497.53;4812198;29;20126;-86
2021/01/09 08:28:14;;;;;;;21.20;8.20;;;;;;;-1.95;100.00;102485.22;4817060;29;20034;-85
2021/01/09 08:30:40;;;;;;;22.38;8.25;;;;;;;-1.75;100.00;102501.44;4813040;29;20030;-85
2021/01/09 08:33:08;;;;;;;13.05;8.10;;;;;;;-1.84;100.00;102504.59;4817883;29;20369;-86
2021/01/09 08:35:38;;;;;;;16.75;9.73;;;;;;;-1.83;100.00;102498.56;4818665;29;20399;-86
2021/01/09 08:38:04;;;;;;;18.83;8.80;;;;;;;-1.72;100.00;102508.41;4819535;29;20033;-86
2021/01/09 08:40:31;;;;;;;22.77;8.68;;;;;;;-1.76;100.00;102494.44;4812034;29;20655;-86
2021/01/09 08:43:14;;;;;;;18.17;8.95;;;;;;;-1.54;100.00;102503.81;4813924;29;20098;-86
2021/01/09 08:45:49;;;;;;;16.10;8.07;;;;;;;-1.38;100.00;102513.84;4816736;29;20057;-86
2021/01/09 08:48:22;;;;;;;13.00;7.32;;;;;;;-1.25;100.00;102496.94;4818851;29;20039;-86
2021/01/09 08:51:17;;;;;;;18.13;8.77;;;;;;;-1.11;100.00;102502.53;4811767;29;20043;-86
2021/01/09 08:53:53;;;;;;;16.35;7.85;;;;;;;-0.98;100.00;102509.84;4748764;30;20039;-87
2021/01/09 08:56:19;;;;;;;;;;;;;;;-0.85;100.00;102506.78;4765117;30;20100;-87
2021/01/09 08:58:45;;;;;;;20.17;8.90;;;;;;;-0.69;100.00;102517.63;4771103;30;20800;-87
2021/01/09 09:01:13;;;;;;;15.02;8.48;;;;;;;-0.62;100.00;102522.13;4756217;30;20095;-87
2021/01/09 09:03:47;;;;;;;21.58;8.77;;;;;;;-0.52;100.00;102503.38;4756925;30;20073;-87
2021/01/09 09:06:15;;;;;;;17.40;9.10;;;;;;;-0.27;100.00;102516.19;4770180;30;20748;-86
2021/01/09 09:08:41;;;;;;;13.65;8.63;;;;;;;-0.18;100.00;102522.47;4772183;30;20511;-86
2021/01/09 09:11:07;;;;;;;21.00;9.82;;;;;;;-0.06;100.00;102513.25;4754866;30;20063;-86
2021/01/09 09:13:33;;;;;;;21.45;10.05;;;;;;;0.18;100.00;102520.81;4756575;30;20027;-89
2021/01/09 09:16:15;;;;;;;20.17;10.02;;;;;;;0.37;100.00;102521.28;4754446;30;20032;-85
2021/01/09 09:18:41;;;;;;;18.73;9.90;;;;;;;0.59;100.00;102510.53;4765115;30;20470;-86
2021/01/09 09:21:08;;;;;;;19.25;10.55;;;;;;;1.15;100.00;102529.13;4761894;30;20098;-86
2021/01/09 09:23:34;;;;;;;13.75;8.20;;;;;;;1.63;100.00;102530.09;4770910;30;20472;-86
2021/01/09 09:26:08;;;;;;;13.57;7.70;;;;;;;2.25;100.00;102536.44;4771678;30;20047;-85
2021/01/09 09:28:45;;;;;;;14.45;6.40;;;;;;;2.66;100.00;102531.03;4768438;30;20177;-86
2021/01/09 09:31:26;;;;;;;15.43;6.55;;;;;;;3.21;100.00;102534.38;4818410;29;20108;-86
2021/01/09 09:34:06;;;;;;;11.07;5.28;;;;;;;3.40;100.00;102525.03;4816393;29;20060;-86
2021/01/09 09:36:34;;;;;;;13.10;4.95;;;;;;;3.80;100.00;102533.34;4824847;29;20031;-86
2021/01/09 09:39:13;;;;;;;16.45;5.78;;;;;;;4.22;100.00;102537.22;4821559;29;20027;-86
2021/01/09 09:41:49;;;;;;;11.88;5.75;;;;;;;4.39;100.00;102533.03;4823701;29;20043;-85
2021/01/09 09:44:14;;;;;;;17.05;5.03;;;;;;;4.60;100.00;102527.94;4821797;29;20038;-85
2021/01/09 09:46:41;;;;;;;8.82;5.07;;;;;;;4.84;100.00;102526.34;4818203;29;20042;-86
2021/01/09 09:49:06;;;;;;;9.90;4.60;;;;;;;5.15;100.00;102530.88;4824100;29;20057;-85
2021/01/09 09:51:34;;;;;;;12.45;5.03;;;;;;;5.25;100.00;102538.81;4821293;29;20030;-86
2021/01/09 09:53:59;;;;;;;7.47;4.53;;;;;;;5.34;100.00;102541.47;4819805;29;20363;-86
2021/01/09 09:56:25;;;;;;;12.02;4.18;;;;;;;5.61;100.00;102524.94;4822695;29;20035;-85
2021/01/09 09:59:02;;;;;;;12.88;4.38;;;;;;;6.05;100.00;102538.19;4818343;29;20045;-86
2021/01/09 10:01:29;;;;;;;10.73;4.43;;;;;;;6.10;100.00;102531.19;4814251;29;20030;-85
2021/01/09 10:03:55;;;;;;;10.93;4.53;;;;;;;6.23;100.00;102530.34;4826845;29;20049;-85
2021/01/09 10:06:22;;;;;;;10.50;4.07;;;;;;;6.44;100.00;102539.97;4819742;29;20080;-85
2021/01/09 10:08:47;;;;;;;10.95;4.78;;;;;;;6.54;98.84;102529.47;4817996;29;20107;-86
2021/01/09 10:11:13;;;;;;;12.43;4.13;;;;;;;6.63;99.86;102522.47;4822860;29;20048;-86
2021/01/09 10:13:38;;;;;;;18.95;4.63;;;;;;;6.73;94.64;102537.34;4821582;29;20685;-86
2021/01/09 10:16:05;;;;;;;16.25;5.13;;;;;;;7.00;94.89;102525.88;4827586;29;20468;-86
2021/01/09 10:18:32;;;;;;;13.65;4.68;;;;;;;7.19;95.08;102528.44;4820462;29;20098;-86
2021/01/09 10:20:58;;;;;;;11.80;4.47;;;;;;;7.48;94.17;102530.94;4814150;29;20107;-86
2021/01/09 10:23:30;;;;;;;13.20;3.88;;;;;;;7.79;90.70;102526.41;4824964;29;20394;-86
2021/01/09 10:25:56;;;;;;;13.35;4.43;;;;;;;7.99;86.48;102523.66;4835641;29;20129;-86
2021/01/09 10:28:23;;;;;;;13.07;5.47;;;;;;;8.43;89.26;102523.31;4812637;29;21170;-86
2021/01/09 10:30:50;;;;;;;11.00;4.50;;;;;;;8.74;84.62;102518.66;4819042;29;20038;-87
2021/01/09 10:33:16;;;;;;;11.95;4.18;;;;;;;8.90;86.87;102527.25;4826273;29;20022;-87
2021/01/09 10:35:48;;;;;;;6.53;3.08;;;;;;;8.78;86.14;102519.47;4828629;29;20046;-87
2021/01/09 10:38:16;;;;;;;16.88;3.38;;;;;;;8.05;86.56;102513.06;4808156;29;20046;-86
2021/01/09 10:40:42;;;;;;;7.32;3.08;;;;;;;6.55;93.04;102508.44;4823116;29;20475;-86
2021/01/09 10:43:08;;;;;;;12.52;3.55;;;;;;;5.94;96.15;102517.19;4817694;29;20066;-86
2021/01/09 10:45:33;;;;;;;9.57;4.18;;;;;;;6.80;93.19;102508.41;4821546;29;20023;-86
2021/01/09 10:47:58;;;;;;;11.38;5.20;;;;;;;7.74;88.48;102522.94;4824028;29;20045;-87
2021/01/09 10:50:24;;;;;;;12.23;4.15;;;;;;;8.51;87.83;102512.72;4826668;29;20041;-87
2021/01/09 10:52:49;;;;;;;12.15;4.43;;;;;;;8.86;85.55;102519.41;4817281;29;20034;-88
2021/01/09 10:55:14;;;;;;;9.63;3.15;;;;;;;9.10;82.67;102518.25;4816617;29;20070;-87
2021/01/09 10:57:40;;;;;;;9.65;3.55;;;;;;;9.44;82.17;102508.13;4817355;29;20495;-87
2021/01/09 11:00:09;;;;;;;11.30;3.65;;;;;;;9.09;83.32;102514.75;4814538;29;20026;-87
2021/01/09 11:02:34;;;;;;;19.15;6.88;;;;;;;8.47;81.36;102505.72;4818363;29;20030;-87
2021/01/09 11:04:59;;;;;;;12.57;3.65;;;;;;;8.66;82.02;102501.16;4825021;29;20038;-87
2021/01/09 11:07:25;;;;;;;10.10;4.20;;;;;;;9.06;80.42;102501.59;4811866;29;20609;-87
2021/01/09 11:09:50;;;;;;;13.50;4.07;;;;;;;9.11;80.17;102493.63;4816188;29;20116;-87
2021/01/09 11:12:15;;;;;;;10.45;3.25;;;;;;;8.74;81.15;102483.50;4818857;29;20076;-87
2021/01/09 11:14:41;;;;;;;8.55;3.60;;;;;;;8.96;80.87;102482.38;4816038;29;20109;-87